createdAt,value
2017-10-12T00:01:46.106Z,38.87
2017-10-12T00:04:13.622Z,41.03
2017-10-12T00:06:41.141Z,32.10
2017-10-12T00:09:08.746Z,33.27
2017-10-12T00:11:36.262Z,41.57
2017-10-12T00:14:03.796Z,34.27
2017-10-12T00:16:31.344Z,27.83
2017-10-12T00:18:58.890Z,34.20
2017-10-12T00:21:26.398Z,31.20
2017-10-12T00:23:54.119Z,30.27
2017-10-12T00:26:21.694Z,39.80
2017-10-12T00:28:49.247Z,31.57
2017-10-12T00:31:16.864Z,29.03
2017-10-12T00:33:44.413Z,34.13
2017-10-12T00:44:08.463Z,34.30
2017-10-12T00:46:36.043Z,37.67
2017-10-12T00:49:03.657Z,31.90
2017-10-12T00:51:31.258Z,35.27
2017-10-12T00:53:58.782Z,38.07
2017-10-12T00:56:26.360Z,31.53
2017-10-12T00:58:54.209Z,27.43
2017-10-12T01:01:21.740Z,26.23
2017-10-12T01:03:49.299Z,21.17
2017-10-12T01:06:16.898Z,18.30
2017-10-12T01:08:44.438Z,17.10
2017-10-12T01:11:11.980Z,24.13
2017-10-12T01:13:39.636Z,20.60
2017-10-12T01:16:07.158Z,18.57
2017-10-12T01:18:34.694Z,21.73
2017-10-12T01:21:02.324Z,25.00
2017-10-12T01:23:29.859Z,21.47
2017-10-12T01:25:57.420Z,20.10
2017-10-12T01:28:25.022Z,16.00
2017-10-12T01:30:52.547Z,17.23
2017-10-12T01:33:20.076Z,22.63
2017-10-12T01:35:47.669Z,22.60
2017-10-12T01:38:15.214Z,19.20
2017-10-12T01:40:42.757Z,20.37
2017-10-12T01:43:10.361Z,20.60
2017-10-12T01:45:37.914Z,20.10
2017-10-12T01:48:05.523Z,23.63
2017-10-12T01:50:33.112Z,21.43
2017-10-12T01:53:00.667Z,19.40
2017-10-12T01:55:28.341Z,21.13
2017-10-12T01:57:55.931Z,23.27
2017-10-12T02:00:23.478Z,20.73
2017-10-12T02:02:51.039Z,18.30
2017-10-12T02:05:18.659Z,26.47
2017-10-12T02:07:46.182Z,19.90
2017-10-12T02:10:13.771Z,20.33
2017-10-12T02:12:41.410Z,19.10
2017-10-12T02:15:08.993Z,19.67
2017-10-12T02:17:36.562Z,22.70
2017-10-12T02:20:04.173Z,21.70
2017-10-12T02:22:31.699Z,24.50
2017-10-12T02:24:59.241Z,25.97
2017-10-12T02:27:26.902Z,21.87
2017-10-12T02:29:54.436Z,22.70
2017-10-12T02:32:21.960Z,26.10
2017-10-12T02:34:49.530Z,22.47
2017-10-12T02:37:17.064Z,23.90
2017-10-12T02:39:44.604Z,27.03
2017-10-12T02:42:12.209Z,23.23
2017-10-12T02:44:39.730Z,19.30
2017-10-12T02:47:07.284Z,22.87
2017-10-12T02:49:34.850Z,16.03
2017-10-12T02:52:02.441Z,19.90
2017-10-12T02:54:29.983Z,22.33
2017-10-12T02:56:57.612Z,16.13
2017-10-12T02:59:25.164Z,13.30
2017-10-12T03:01:52.898Z,13.50
2017-10-12T03:04:20.500Z,15.40
2017-10-12T03:06:48.029Z,17.42
2017-10-12T03:09:15.616Z,15.90
2017-10-12T03:11:43.206Z,13.50
2017-10-12T03:14:10.865Z,18.33
2017-10-12T03:16:38.419Z,13.60
2017-10-12T03:19:06.014Z,16.00
2017-10-12T03:21:33.556Z,17.20
2017-10-12T03:24:01.087Z,14.17
2017-10-12T03:26:28.668Z,14.83
2017-10-12T03:28:56.196Z,13.50
2017-10-12T03:31:23.765Z,17.83
2017-10-12T03:33:51.365Z,17.60
2017-10-12T03:36:19.149Z,15.70
2017-10-12T03:38:46.761Z,14.90
2017-10-12T03:41:14.367Z,16.43
2017-10-12T03:44:30.015Z,22.63
2017-10-12T03:46:57.594Z,17.17
2017-10-12T03:49:25.427Z,20.43
2017-10-12T03:51:52.982Z,24.10
2017-10-12T03:54:20.669Z,33.37
2017-10-12T03:57:13.791Z,33.43
2017-10-12T03:59:42.291Z,37.23
2017-10-12T04:02:09.863Z,29.03
2017-10-12T04:04:37.394Z,25.63
2017-10-12T04:07:06.656Z,33.27
2017-10-12T04:09:34.259Z,33.37
2017-10-12T04:12:02.903Z,35.90
2017-10-12T04:14:30.449Z,39.30
2017-10-12T04:16:58.026Z,32.03
2017-10-12T04:19:25.629Z,39.87
2017-10-12T04:21:53.516Z,31.67
2017-10-12T04:24:21.110Z,37.93
2017-10-12T04:26:48.673Z,38.63
2017-10-12T04:29:16.212Z,31.03
2017-10-12T04:31:43.813Z,39.70
2017-10-12T04:34:11.413Z,34.00
2017-10-12T04:36:38.938Z,31.17
2017-10-12T04:39:06.527Z,37.00
2017-10-12T04:41:34.302Z,34.43
2017-10-12T04:44:01.814Z,27.97
2017-10-12T04:46:29.413Z,35.80
2017-10-12T04:48:56.963Z,47.87
2017-10-12T04:51:24.824Z,40.27
2017-10-12T04:53:52.410Z,45.50
2017-10-12T04:56:19.926Z,31.13
2017-10-12T04:58:47.471Z,38.07
2017-10-12T05:01:15.039Z,35.20
2017-10-12T05:03:42.563Z,42.67
2017-10-12T05:06:10.131Z,35.83
2017-10-12T05:08:37.753Z,41.07
2017-10-12T05:11:05.290Z,48.40
2017-10-12T05:13:32.875Z,38.93
2017-10-12T05:16:00.447Z,35.53
2017-10-12T05:18:27.976Z,28.47
2017-10-12T05:20:55.510Z,47.50
2017-10-12T05:23:23.078Z,34.93
2017-10-12T05:25:50.639Z,32.93
2017-10-12T05:28:18.173Z,29.80
2017-10-12T05:30:45.778Z,25.53
2017-10-12T05:33:13.341Z,26.13
2017-10-12T05:35:40.876Z,20.20
2017-10-12T05:38:08.501Z,18.80
2017-10-12T05:40:36.045Z,29.20
2017-10-12T05:43:03.603Z,31.23
2017-10-12T05:45:31.182Z,35.50
2017-10-12T05:47:58.696Z,36.23
2017-10-12T05:50:26.235Z,25.17
2017-10-12T05:52:53.798Z,24.80
2017-10-12T05:55:21.317Z,28.67
2017-10-12T05:57:48.847Z,25.63
2017-10-12T06:00:16.423Z,31.40
2017-10-12T06:02:43.971Z,28.30
2017-10-12T06:05:11.533Z,34.87
2017-10-12T06:07:39.102Z,38.63
2017-10-12T06:10:06.647Z,33.73
2017-10-12T06:12:34.185Z,34.80
2017-10-12T06:15:01.759Z,26.60
2017-10-12T06:17:29.316Z,35.07
2017-10-12T06:19:56.878Z,37.80
2017-10-12T06:22:24.443Z,30.70
2017-10-12T06:24:51.974Z,34.30
2017-10-12T06:27:19.496Z,32.50
2017-10-12T06:29:47.171Z,35.10
2017-10-12T06:32:14.764Z,28.50
2017-10-12T06:34:42.301Z,35.90
2017-10-12T06:37:09.827Z,28.97
2017-10-12T06:39:37.409Z,36.90
2017-10-12T06:42:05.007Z,40.53
2017-10-12T06:44:32.539Z,31.10
2017-10-12T06:47:00.104Z,28.67
2017-10-12T06:49:27.652Z,28.43
2017-10-12T06:51:55.166Z,27.10
2017-10-12T06:54:22.783Z,27.87
2017-10-12T06:56:50.327Z,31.33
2017-10-12T06:59:17.844Z,29.53
2017-10-12T07:01:45.474Z,30.63
2017-10-12T07:04:12.990Z,26.73
2017-10-12T07:06:40.510Z,30.43
2017-10-12T07:09:08.086Z,28.17
2017-10-12T07:11:39.841Z,27.80
2017-10-12T07:14:07.363Z,33.27
2017-10-12T07:16:34.936Z,33.17
2017-10-12T07:19:02.557Z,29.87
2017-10-12T07:21:30.094Z,27.83
2017-10-12T07:23:57.692Z,33.10
2017-10-12T07:26:25.247Z,32.07
2017-10-12T07:28:52.821Z,31.03
2017-10-12T07:31:20.414Z,35.60
2017-10-12T07:33:47.968Z,35.07
2017-10-12T07:36:15.508Z,27.80
2017-10-12T07:38:43.101Z,35.40
2017-10-12T07:41:10.632Z,36.03
2017-10-12T07:43:38.195Z,32.97
2017-10-12T07:46:05.788Z,34.60
2017-10-12T07:48:33.332Z,30.70
2017-10-12T07:51:00.856Z,38.07
2017-10-12T07:53:28.516Z,37.53
2017-10-12T07:55:56.058Z,31.30
2017-10-12T07:58:23.608Z,27.33
2017-10-12T08:00:51.194Z,38.10
2017-10-12T08:03:18.721Z,30.50
2017-10-12T08:05:46.249Z,27.93
2017-10-12T08:08:13.825Z,28.73
2017-10-12T08:10:41.365Z,26.80
2017-10-12T08:13:09.122Z,33.57
2017-10-12T08:15:36.686Z,26.47
2017-10-12T08:18:04.462Z,31.93
2017-10-12T08:20:31.984Z,33.20
2017-10-12T08:22:59.558Z,28.73
2017-10-12T08:25:27.102Z,27.87
2017-10-12T08:27:54.674Z,27.40
2017-10-12T08:30:22.373Z,28.83
2017-10-12T08:32:49.882Z,22.83
2017-10-12T08:35:17.405Z,28.27
2017-10-12T08:37:44.994Z,18.53
2017-10-12T08:40:12.513Z,18.00
2017-10-12T08:42:40.044Z,16.13
2017-10-12T08:45:07.649Z,15.53
2017-10-12T08:47:35.200Z,15.27
2017-10-12T08:50:02.740Z,18.70
2017-10-12T08:52:30.335Z,18.60
2017-10-12T08:54:57.889Z,18.63
2017-10-12T08:57:25.423Z,18.00
2017-10-12T08:59:53.072Z,16.70
2017-10-12T09:02:20.660Z,19.83
2017-10-12T09:04:48.184Z,18.23
2017-10-12T09:07:15.707Z,19.30
2017-10-12T09:09:43.287Z,18.63
2017-10-12T09:12:10.853Z,17.83
2017-10-12T09:14:38.374Z,22.73
2017-10-12T09:17:05.932Z,19.00
2017-10-12T09:19:33.456Z,17.53
2017-10-12T09:22:01.000Z,18.93
2017-10-12T09:24:28.622Z,18.23
2017-10-12T09:26:56.388Z,24.80
2017-10-12T09:29:23.928Z,17.67
2017-10-12T09:31:51.524Z,23.93
2017-10-12T09:34:19.067Z,21.00
2017-10-12T09:36:46.634Z,17.67
2017-10-12T09:39:14.246Z,19.83
2017-10-12T09:41:41.862Z,17.53
2017-10-12T09:44:09.447Z,19.13
2017-10-12T09:46:37.134Z,19.40
2017-10-12T09:49:04.692Z,17.30
2017-10-12T09:51:32.357Z,22.00
2017-10-12T09:53:59.942Z,20.93
2017-10-12T09:56:27.539Z,18.93
2017-10-12T09:58:55.097Z,19.27
2017-10-12T10:01:22.711Z,15.93
2017-10-12T10:03:50.287Z,15.50
2017-10-12T10:06:17.840Z,16.33
2017-10-12T10:08:45.419Z,15.67
2017-10-12T10:11:13.356Z,17.93
2017-10-12T10:13:40.875Z,23.13
2017-10-12T10:16:08.457Z,17.30
2017-10-12T10:18:35.994Z,16.90
2017-10-12T10:21:03.614Z,20.77
2017-10-12T10:23:31.195Z,22.50
2017-10-12T10:25:58.730Z,42.17
2017-10-12T10:28:26.552Z,25.17
2017-10-12T10:30:54.181Z,24.40
2017-10-12T10:33:21.751Z,17.60
2017-10-12T10:35:49.366Z,16.97
2017-10-12T10:38:16.934Z,15.87
2017-10-12T10:40:44.455Z,18.13
2017-10-12T10:43:11.977Z,16.40
2017-10-12T10:45:39.531Z,22.67
2017-10-12T10:48:07.054Z,20.50
2017-10-12T10:50:34.583Z,25.67
2017-10-12T10:53:02.193Z,14.90
2017-10-12T10:55:29.743Z,19.43
2017-10-12T10:57:57.269Z,11.00
2017-10-12T11:00:24.910Z,11.90
2017-10-12T11:02:52.588Z,16.67
2017-10-12T11:05:20.110Z,15.77
2017-10-12T11:07:47.687Z,15.43
2017-10-12T11:10:15.199Z,9.70
2017-10-12T11:12:42.732Z,11.40
2017-10-12T11:15:10.455Z,9.93
2017-10-12T11:17:38.048Z,17.87
2017-10-12T11:20:05.568Z,13.00
2017-10-12T11:22:33.132Z,11.93
2017-10-12T11:25:00.645Z,9.70
2017-10-12T11:27:28.445Z,8.33
2017-10-12T11:29:56.762Z,6.07
2017-10-12T11:32:24.336Z,12.83
2017-10-12T11:34:51.955Z,6.80
2017-10-12T11:37:19.514Z,10.77
2017-10-12T11:39:47.159Z,10.70
2017-10-12T11:42:14.743Z,11.17
2017-10-12T11:44:42.262Z,6.57
2017-10-12T11:47:10.352Z,6.73
2017-10-12T11:49:37.919Z,5.70
2017-10-12T11:52:05.933Z,6.87
2017-10-12T11:54:33.690Z,6.97
2017-10-12T11:57:02.141Z,10.03
2017-10-12T11:59:29.915Z,6.40
2017-10-12T12:01:57.521Z,9.90
2017-10-12T12:04:25.059Z,6.70
2017-10-12T12:06:52.596Z,7.03
2017-10-12T12:09:21.109Z,19.10
2017-10-12T12:11:48.668Z,9.47
2017-10-12T12:14:16.525Z,15.57
2017-10-12T12:16:44.103Z,7.70
2017-10-12T12:19:11.656Z,5.67
2017-10-12T12:21:39.216Z,5.90
2017-10-12T12:24:06.850Z,10.17
2017-10-12T12:26:34.373Z,8.40
2017-10-12T12:29:02.136Z,6.10
2017-10-12T12:31:29.714Z,8.17
2017-10-12T12:33:57.274Z,5.20
2017-10-12T12:36:25.067Z,6.23
2017-10-12T12:38:53.371Z,5.00
2017-10-12T12:41:20.963Z,6.40
2017-10-12T12:43:48.768Z,7.90
2017-10-12T12:46:16.358Z,5.73
2017-10-12T12:48:43.957Z,6.63
2017-10-12T12:51:11.466Z,5.17
2017-10-12T12:53:39.026Z,11.73
2017-10-12T12:56:07.070Z,5.00
2017-10-12T12:58:34.838Z,5.30
2017-10-12T13:01:02.473Z,11.83
2017-10-12T13:03:30.062Z,8.13
2017-10-12T13:05:58.134Z,9.07
2017-10-12T13:08:25.719Z,4.60
2017-10-12T13:10:53.329Z,4.60
2017-10-12T13:13:20.894Z,7.00
2017-10-12T13:15:48.466Z,5.63
2017-10-12T13:18:16.022Z,8.20
2017-10-12T13:20:43.616Z,14.53
2017-10-12T13:23:11.254Z,6.60
2017-10-12T13:25:38.777Z,8.90
2017-10-12T13:28:06.514Z,6.67
2017-10-12T13:30:35.045Z,6.63
2017-10-12T13:33:02.561Z,11.10
2017-10-12T13:35:30.161Z,6.10
2017-10-12T13:37:57.744Z,7.67
2017-10-12T13:40:25.296Z,7.60
2017-10-12T13:42:53.796Z,8.13
2017-10-12T13:45:21.369Z,7.93
2017-10-12T13:47:48.929Z,6.70
2017-10-12T13:50:16.453Z,9.93
2017-10-12T13:52:44.103Z,8.10
2017-10-12T13:55:11.929Z,7.50
2017-10-12T13:57:39.534Z,11.70
2017-10-12T14:00:08.267Z,5.50
2017-10-12T14:02:36.099Z,9.57
2017-10-12T14:05:03.693Z,16.80
2017-10-12T14:07:31.356Z,12.80
2017-10-12T14:09:58.952Z,10.87
2017-10-12T14:12:26.567Z,7.80
2017-10-12T14:14:54.258Z,4.63
2017-10-12T14:17:21.949Z,4.97
2017-10-12T14:19:49.502Z,4.73
2017-10-12T14:22:17.119Z,10.10
2017-10-12T14:24:44.965Z,6.33
2017-10-12T14:27:12.511Z,6.37
2017-10-12T14:29:40.071Z,12.40
2017-10-12T14:32:07.643Z,5.67
2017-10-12T14:34:35.200Z,6.07
2017-10-12T14:37:02.947Z,6.60
2017-10-12T14:39:30.555Z,10.97
2017-10-12T14:41:58.187Z,5.50
2017-10-12T14:44:27.045Z,6.57
2017-10-12T14:46:54.635Z,5.60
2017-10-12T14:49:22.173Z,9.90
2017-10-12T14:51:50.037Z,15.13
2017-10-12T14:54:17.603Z,8.80
2017-10-12T14:56:45.144Z,9.63
2017-10-12T14:59:12.893Z,7.90
2017-10-12T15:01:40.609Z,8.27
2017-10-12T15:04:08.154Z,11.10
2017-10-12T15:06:36.003Z,9.67
2017-10-12T15:09:03.686Z,8.23
2017-10-12T15:11:31.207Z,11.10
2017-10-12T15:13:58.722Z,8.33
2017-10-12T15:16:26.336Z,12.87
2017-10-12T15:18:54.138Z,6.80
2017-10-12T15:21:22.069Z,11.90
2017-10-12T15:23:49.703Z,7.47
2017-10-12T15:26:17.335Z,7.80
2017-10-12T15:28:45.105Z,8.93
2017-10-12T15:31:12.737Z,8.10
2017-10-12T15:33:40.250Z,8.30
2017-10-12T15:36:07.961Z,9.27
2017-10-12T15:38:35.522Z,9.57
2017-10-12T15:41:03.069Z,13.50
2017-10-12T15:43:31.391Z,13.43
2017-10-12T15:45:59.016Z,11.93
2017-10-12T15:48:26.598Z,7.77
2017-10-12T15:50:54.549Z,21.40
2017-10-12T15:53:22.208Z,11.13
2017-10-12T15:55:49.788Z,11.80
2017-10-12T15:58:17.327Z,19.20
2017-10-12T16:00:44.968Z,17.80
2017-10-12T16:03:12.527Z,17.27
2017-10-12T16:05:40.502Z,13.40
2017-10-12T16:08:08.146Z,17.50
2017-10-12T16:10:35.714Z,17.50
2017-10-12T16:13:03.315Z,16.90
2017-10-12T16:15:31.086Z,11.47
2017-10-12T16:17:58.975Z,10.63
2017-10-12T16:20:26.951Z,17.00
2017-10-12T16:22:57.559Z,16.70
2017-10-12T16:25:22.438Z,19.67
2017-10-12T16:27:50.706Z,19.20
2017-10-12T16:30:19.363Z,14.90
2017-10-12T16:35:15.543Z,17.47
2017-10-12T16:37:43.184Z,15.87
2017-10-12T16:42:38.467Z,22.87
2017-10-12T16:45:06.063Z,23.00
2017-10-12T16:47:33.635Z,26.73
2017-10-12T16:50:01.264Z,24.73
2017-10-12T16:52:30.291Z,32.10
2017-10-12T16:54:57.842Z,40.00
2017-10-12T16:57:25.467Z,222.63
2017-10-12T16:59:53.374Z,464.47
2017-10-12T17:02:21.408Z,885.80
2017-10-12T17:04:49.002Z,316.43
2017-10-12T17:07:17.713Z,475.13
2017-10-12T17:09:45.325Z,337.70
2017-10-12T17:12:12.908Z,146.60
2017-10-12T17:14:40.499Z,50.50
2017-10-12T17:17:08.169Z,31.90
2017-10-12T17:19:35.740Z,30.23
2017-10-12T17:22:03.384Z,32.40
2017-10-12T17:24:30.967Z,27.87
2017-10-12T17:26:58.563Z,35.73
2017-10-12T17:29:26.118Z,29.60
2017-10-12T17:31:53.813Z,36.80
2017-10-12T17:34:21.395Z,33.43
2017-10-12T17:36:48.936Z,38.67
2017-10-12T17:39:16.535Z,39.67
2017-10-12T17:41:44.093Z,39.33
2017-10-12T17:44:12.015Z,47.10
2017-10-12T17:46:39.681Z,43.90
2017-10-12T17:49:07.242Z,45.07
2017-10-12T17:51:34.761Z,43.53
2017-10-12T17:56:30.028Z,35.10
2017-10-12T17:58:57.589Z,47.13
2017-10-12T18:01:25.246Z,48.70
2017-10-12T18:03:52.839Z,58.13
2017-10-12T18:06:20.452Z,56.27
2017-10-12T18:08:48.034Z,48.40
2017-10-12T18:11:15.584Z,54.17
2017-10-12T18:13:43.101Z,40.17
2017-10-12T18:16:10.812Z,36.77
2017-10-12T18:18:38.685Z,25.63
2017-10-12T18:21:06.621Z,29.57
2017-10-12T18:23:34.782Z,28.53
2017-10-12T18:26:02.724Z,31.13
2017-10-12T18:28:30.934Z,29.13
2017-10-12T18:30:59.050Z,27.53
2017-10-12T18:33:27.077Z,27.10
2017-10-12T18:35:55.305Z,27.33
2017-10-12T18:38:23.485Z,27.23
2017-10-12T18:40:51.746Z,29.03
2017-10-12T18:43:19.679Z,34.10
2017-10-12T18:45:47.694Z,31.93
2017-10-12T18:48:15.715Z,30.70
2017-10-12T18:50:44.322Z,25.53
2017-10-12T18:53:12.528Z,26.87
2017-10-12T18:55:40.676Z,23.30
2017-10-12T18:58:08.849Z,31.33
2017-10-12T19:00:37.019Z,33.67
2017-10-12T19:03:05.131Z,25.87
2017-10-12T19:05:33.117Z,23.27
2017-10-12T19:08:02.285Z,20.17
2017-10-12T19:10:30.394Z,22.03
2017-10-12T19:12:58.704Z,25.23
2017-10-12T19:15:26.836Z,27.30
2017-10-12T19:17:54.858Z,36.90
2017-10-12T19:22:51.051Z,27.90
2017-10-12T19:25:19.797Z,33.67
2017-10-12T19:27:48.072Z,48.27
2017-10-12T19:30:16.153Z,57.67
2017-10-12T19:32:44.477Z,34.20
2017-10-12T19:35:12.195Z,43.67
2017-10-12T19:37:39.952Z,36.00
2017-10-12T19:40:07.788Z,49.07
2017-10-12T19:42:35.637Z,65.17
2017-10-12T19:45:03.510Z,52.53
2017-10-12T19:47:31.451Z,51.27
2017-10-12T19:50:00.246Z,88.37
2017-10-12T19:52:28.938Z,94.87
2017-10-12T19:54:56.826Z,120.77
2017-10-12T19:57:24.635Z,122.17
2017-10-12T19:59:52.466Z,119.97
2017-10-12T20:02:20.146Z,98.33
2017-10-12T20:04:47.959Z,77.53
2017-10-12T20:07:15.673Z,75.67
2017-10-12T20:09:43.428Z,76.57
2017-10-12T20:12:11.087Z,82.20
2017-10-12T20:14:38.706Z,117.07
2017-10-12T20:17:06.519Z,105.13
2017-10-12T20:19:34.232Z,108.40
2017-10-12T20:22:01.797Z,114.43
2017-10-12T20:24:29.423Z,127.43
2017-10-12T20:27:04.343Z,145.30
2017-10-12T20:29:31.961Z,118.17
2017-10-12T20:31:59.591Z,105.50
2017-10-12T20:34:27.189Z,95.73
2017-10-12T20:36:54.770Z,105.83
2017-10-12T20:39:22.478Z,115.20
2017-10-12T20:42:19.657Z,106.27
2017-10-12T20:44:17.674Z,108.47
2017-10-12T20:46:45.338Z,102.67
2017-10-12T20:49:12.869Z,89.90
2017-10-12T20:51:40.473Z,91.47
2017-10-12T20:54:08.052Z,114.53
2017-10-12T20:56:35.833Z,93.07
2017-10-12T20:59:03.393Z,109.13
2017-10-12T21:01:30.998Z,97.93
2017-10-12T21:03:58.531Z,104.97
2017-10-12T21:06:26.064Z,97.30
2017-10-12T21:08:53.679Z,102.30
2017-10-12T21:11:21.268Z,96.07
2017-10-12T21:13:49.026Z,108.77
2017-10-12T21:16:16.624Z,102.77
2017-10-12T21:18:44.206Z,78.53
2017-10-12T21:21:11.787Z,78.10
2017-10-12T21:23:39.387Z,90.73
2017-10-12T21:26:07.146Z,87.80
2017-10-12T21:28:34.683Z,85.10
2017-10-12T21:31:02.241Z,73.20
2017-10-12T21:33:29.861Z,71.53
2017-10-12T21:35:57.386Z,82.20
2017-10-12T21:38:24.994Z,84.00
2017-10-12T21:40:52.766Z,81.30
2017-10-12T21:43:20.347Z,61.20
2017-10-12T21:45:47.939Z,63.13
2017-10-12T21:48:15.458Z,47.47
2017-10-12T21:50:43.080Z,45.43
2017-10-12T21:53:10.649Z,47.40
2017-10-12T21:55:38.178Z,43.60
2017-10-12T21:58:05.714Z,57.20
2017-10-12T22:00:33.292Z,44.97
2017-10-12T22:03:01.051Z,45.93
2017-10-12T22:05:28.571Z,38.63
2017-10-12T22:07:56.243Z,36.17
2017-10-12T22:10:23.763Z,38.60
2017-10-12T22:12:51.370Z,48.10
2017-10-12T22:15:18.973Z,41.30
2017-10-12T22:17:46.751Z,44.07
2017-10-12T22:20:15.034Z,50.57
2017-10-12T22:22:43.452Z,46.30
2017-10-12T22:25:12.086Z,53.03
2017-10-12T22:27:39.687Z,41.73
2017-10-12T22:30:07.375Z,36.83
2017-10-12T22:32:34.947Z,40.40
2017-10-12T22:35:02.470Z,31.17
2017-10-12T22:37:32.019Z,32.93
2017-10-12T22:39:59.620Z,24.53
2017-10-12T22:42:27.173Z,23.20
2017-10-12T22:44:54.726Z,17.47
2017-10-12T22:47:22.595Z,16.13
2017-10-12T22:49:50.130Z,16.20
2017-10-12T22:52:17.744Z,20.53
2017-10-12T22:54:45.283Z,26.20
2017-10-12T22:57:12.837Z,16.40
2017-10-12T22:59:40.415Z,18.63
2017-10-12T23:02:08.288Z,17.90
2017-10-12T23:04:35.808Z,18.20
2017-10-12T23:07:03.339Z,17.17
2017-10-12T23:09:30.930Z,18.07
2017-10-12T23:11:58.505Z,19.10
2017-10-12T23:14:26.069Z,18.57
2017-10-12T23:16:53.698Z,20.47
2017-10-12T23:19:21.242Z,18.23
2017-10-12T23:21:48.781Z,18.60
2017-10-12T23:24:16.419Z,17.47
2017-10-12T23:26:43.945Z,20.57
2017-10-12T23:29:11.785Z,17.33
2017-10-12T23:31:39.379Z,17.93
2017-10-12T23:34:06.975Z,20.03
2017-10-12T23:36:34.568Z,17.80
2017-10-12T23:39:02.158Z,21.20
2017-10-12T23:41:29.801Z,22.17
2017-10-12T23:43:57.578Z,20.13
2017-10-12T23:46:25.145Z,21.63
2017-10-12T23:48:52.673Z,21.30
2017-10-12T23:51:20.253Z,22.13
2017-10-12T23:53:47.878Z,21.07
2017-10-12T23:56:15.431Z,17.87
2017-10-12T23:58:43.248Z,27.03
